createdAt,value
2018-08-06T00:00:17.912Z,82.85
2018-08-06T00:01:38.808Z,81.51
2018-08-06T00:02:17.774Z,80.35
2018-08-06T00:03:17.690Z,80.55
2018-08-06T00:04:17.619Z,82.94
2018-08-06T00:05:17.538Z,83.23
2018-08-06T00:06:17.473Z,83.91
2018-08-06T00:07:38.382Z,84.82
2018-08-06T00:08:17.326Z,85.11
2018-08-06T00:09:17.252Z,85.05
2018-08-06T00:10:17.179Z,85.63
2018-08-06T00:11:17.104Z,84.95
2018-08-06T00:12:17.034Z,83.52
2018-08-06T00:13:37.944Z,82.27
2018-08-06T00:14:16.892Z,81.79
2018-08-06T00:15:16.821Z,81.98
2018-08-06T00:16:16.749Z,82.75
2018-08-06T00:17:16.664Z,82.75
2018-08-06T00:18:16.598Z,83.71
2018-08-06T00:19:37.496Z,84.28
2018-08-06T00:20:16.457Z,84.38
2018-08-06T00:21:16.376Z,84.67
2018-08-06T00:22:16.308Z,84.42
2018-08-06T00:23:16.225Z,83.91
2018-08-06T00:24:16.164Z,83.94
2018-08-06T00:25:37.065Z,83.08
2018-08-06T00:26:16.023Z,83.37
2018-08-06T00:27:15.939Z,82.12
2018-08-06T00:28:15.869Z,81.35
2018-08-06T00:29:15.797Z,80.20
2018-08-06T00:30:15.757Z,79.63
2018-08-06T00:31:36.631Z,79.82
2018-08-06T00:32:15.576Z,80.01
2018-08-06T00:33:15.495Z,80.74
2018-08-06T00:34:15.432Z,81.31
2018-08-06T00:35:15.357Z,81.22
2018-08-06T00:36:15.286Z,82.27
2018-08-06T00:37:36.196Z,81.70
2018-08-06T00:38:15.146Z,81.31
2018-08-06T00:39:15.061Z,80.55
2018-08-06T00:40:15.006Z,81.60
2018-08-06T00:41:14.915Z,82.81
2018-08-06T00:42:14.848Z,83.95
2018-08-06T00:43:35.758Z,84.91
2018-08-06T00:44:14.706Z,85.39
2018-08-06T00:45:14.626Z,85.88
2018-08-06T00:46:14.562Z,85.58
2018-08-06T00:47:14.477Z,86.07
2018-08-06T00:48:14.420Z,86.25
2018-08-06T00:49:35.314Z,86.93
2018-08-06T00:50:14.282Z,87.35
2018-08-06T00:51:14.181Z,88.12
2018-08-06T00:52:14.117Z,87.64
2018-08-06T00:53:14.041Z,87.16
2018-08-06T00:54:13.973Z,85.92
2018-08-06T00:55:34.874Z,84.67
2018-08-06T00:56:13.825Z,84.48
2018-08-06T00:57:13.747Z,83.81
2018-08-06T00:58:13.679Z,82.75
2018-08-06T00:59:13.605Z,82.75
2018-08-06T01:00:13.547Z,83.04
2018-08-06T01:01:34.444Z,84.09
2018-08-06T01:02:13.408Z,83.29
2018-08-06T01:03:13.310Z,82.04
2018-08-06T01:04:13.247Z,83.00
2018-08-06T01:05:13.160Z,83.76
2018-08-06T01:06:13.090Z,84.20
2018-08-06T01:07:34.000Z,85.45
2018-08-06T01:08:12.951Z,86.41
2018-08-06T01:09:12.871Z,86.79
2018-08-06T01:10:12.812Z,88.61
2018-08-06T01:11:12.730Z,89.66
2018-08-06T01:12:12.662Z,89.76
2018-08-06T01:13:33.554Z,90.14
2018-08-06T01:14:12.513Z,90.43
2018-08-06T01:15:12.431Z,90.33
2018-08-06T01:16:12.361Z,90.33
2018-08-06T01:17:12.284Z,90.05
2018-08-06T01:18:12.219Z,91.00
2018-08-06T01:19:33.115Z,90.43
2018-08-06T01:20:12.078Z,90.14
2018-08-06T01:21:11.986Z,87.94
2018-08-06T01:22:11.920Z,87.84
2018-08-06T01:23:11.839Z,86.93
2018-08-06T01:24:11.773Z,87.50
2018-08-06T01:25:32.677Z,86.93
2018-08-06T01:26:11.634Z,85.30
2018-08-06T01:27:11.549Z,83.19
2018-08-06T01:28:11.491Z,83.15
2018-08-06T01:29:11.407Z,83.15
2018-08-06T01:30:11.361Z,84.78
2018-08-06T01:31:32.243Z,85.41
2018-08-06T01:32:11.194Z,86.94
2018-08-06T01:33:11.110Z,86.94
2018-08-06T01:34:11.046Z,87.80
2018-08-06T01:35:10.964Z,87.03
2018-08-06T01:36:10.916Z,87.03
2018-08-06T01:37:31.803Z,86.84
2018-08-06T01:38:10.750Z,87.90
2018-08-06T01:39:10.671Z,89.52
2018-08-06T01:40:10.602Z,90.96
2018-08-06T01:41:10.518Z,91.19
2018-08-06T01:42:10.452Z,90.33
2018-08-06T01:43:31.355Z,86.98
2018-08-06T01:44:10.305Z,84.30
2018-08-06T01:45:10.223Z,84.88
2018-08-06T01:46:10.158Z,86.31
2018-08-06T01:47:10.078Z,85.64
2018-08-06T01:48:10.015Z,85.83
2018-08-06T01:49:30.915Z,86.69
2018-08-06T01:50:09.868Z,86.88
2018-08-06T01:51:09.784Z,88.42
2018-08-06T01:52:09.723Z,89.09
2018-08-06T01:53:09.635Z,89.28
2018-08-06T01:54:09.575Z,87.94
2018-08-06T01:55:30.532Z,88.32
2018-08-06T01:56:09.425Z,89.57
2018-08-06T01:57:09.339Z,90.91
2018-08-06T01:58:09.276Z,90.76
2018-08-06T01:59:09.205Z,90.23
2018-08-06T02:00:09.131Z,87.37
2018-08-06T02:01:30.027Z,85.25
2018-08-06T02:02:08.989Z,84.30
2018-08-06T02:03:08.900Z,84.30
2018-08-06T02:04:08.838Z,85.50
2018-08-06T02:05:08.752Z,86.84
2018-08-06T02:06:08.692Z,88.56
2018-08-06T02:07:29.589Z,90.48
2018-08-06T02:08:08.542Z,91.34
2018-08-06T02:09:08.454Z,92.40
2018-08-06T02:10:08.392Z,91.92
2018-08-06T02:11:08.316Z,92.30
2018-08-06T02:12:08.246Z,92.68
2018-08-06T02:13:29.145Z,92.68
2018-08-06T02:14:08.096Z,92.01
2018-08-06T02:15:08.015Z,91.92
2018-08-06T02:16:07.948Z,93.16
2018-08-06T02:17:07.869Z,93.26
2018-08-06T02:18:07.804Z,91.63
2018-08-06T02:19:28.698Z,91.34
2018-08-06T02:20:07.650Z,90.48
2018-08-06T02:21:07.571Z,89.04
2018-08-06T02:22:07.504Z,87.32
2018-08-06T02:23:07.430Z,85.12
2018-08-06T02:24:07.360Z,84.16
2018-08-06T02:25:28.327Z,84.26
2018-08-06T02:26:07.214Z,85.41
2018-08-06T02:27:07.128Z,87.41
2018-08-06T02:28:08.065Z,89.33
2018-08-06T02:29:06.982Z,89.81
2018-08-06T02:30:06.915Z,91.05
2018-08-06T02:31:27.820Z,90.48
2018-08-06T02:32:06.775Z,89.90
2018-08-06T02:33:06.683Z,88.95
2018-08-06T02:34:06.635Z,88.66
2018-08-06T02:35:06.542Z,90.00
2018-08-06T02:36:06.470Z,91.05
2018-08-06T02:37:27.368Z,91.63
2018-08-06T02:38:06.329Z,91.63
2018-08-06T02:39:06.243Z,90.29
2018-08-06T02:40:06.182Z,90.39
2018-08-06T02:41:06.091Z,87.90
2018-08-06T02:42:06.027Z,88.76
2018-08-06T02:43:26.928Z,89.04
2018-08-06T02:44:05.886Z,89.14
2018-08-06T02:45:05.798Z,90.09
2018-08-06T02:46:05.730Z,91.58
2018-08-06T02:47:05.646Z,92.78
2018-08-06T02:48:05.585Z,93.59
2018-08-06T02:49:26.481Z,93.50
2018-08-06T02:50:05.440Z,93.79
2018-08-06T02:51:05.356Z,94.45
2018-08-06T02:52:05.285Z,94.74
2018-08-06T02:53:05.201Z,94.45
2018-08-06T02:54:05.140Z,94.55
2018-08-06T02:55:26.075Z,94.84
2018-08-06T02:56:04.993Z,95.22
2018-08-06T02:57:04.904Z,95.03
2018-08-06T02:58:04.843Z,95.12
2018-08-06T02:59:04.819Z,94.84
2018-08-06T03:00:04.737Z,91.87
2018-08-06T03:01:25.594Z,92.44
2018-08-06T03:02:04.546Z,93.21
2018-08-06T03:03:04.471Z,93.30
2018-08-06T03:04:04.417Z,92.25
2018-08-06T03:05:04.314Z,93.69
2018-08-06T03:06:04.249Z,94.50
2018-08-06T03:07:25.147Z,94.79
2018-08-06T03:08:04.103Z,95.07
2018-08-06T03:09:04.033Z,93.83
2018-08-06T03:10:03.974Z,90.29
2018-08-06T03:11:03.870Z,87.03
2018-08-06T03:12:03.800Z,86.80
2018-08-06T03:13:24.706Z,88.23
2018-08-06T03:14:03.674Z,88.62
2018-08-06T03:15:03.580Z,89.67
2018-08-06T03:16:03.510Z,90.91
2018-08-06T03:17:03.425Z,92.63
2018-08-06T03:18:03.369Z,93.40
2018-08-06T03:19:24.264Z,94.89
2018-08-06T03:20:03.210Z,91.30
2018-08-06T03:21:03.127Z,90.15
2018-08-06T03:22:03.064Z,91.39
2018-08-06T03:23:02.980Z,92.30
2018-08-06T03:24:02.916Z,92.69
2018-08-06T03:25:23.811Z,91.73
2018-08-06T03:26:02.767Z,92.30
2018-08-06T03:27:02.681Z,93.16
2018-08-06T03:28:02.612Z,94.12
2018-08-06T03:29:02.528Z,94.79
2018-08-06T03:30:02.469Z,95.65
2018-08-06T03:31:23.367Z,98.04
2018-08-06T03:32:02.322Z,99.99
2018-08-06T03:33:02.232Z,99.99
2018-08-06T03:34:02.168Z,99.99
2018-08-06T03:35:02.091Z,99.99
2018-08-06T03:36:02.022Z,99.99
2018-08-06T03:37:22.919Z,99.99
2018-08-06T03:38:01.893Z,96.03
2018-08-06T03:39:01.792Z,94.89
2018-08-06T03:40:01.720Z,96.03
2018-08-06T03:41:01.643Z,96.89
2018-08-06T03:42:01.594Z,97.47
2018-08-06T03:43:22.489Z,97.37
2018-08-06T03:44:01.421Z,97.95
2018-08-06T03:45:01.343Z,97.18
2018-08-06T03:46:01.286Z,97.56
2018-08-06T03:47:01.195Z,96.99
2018-08-06T03:48:02.125Z,92.49
2018-08-06T03:49:22.067Z,90.77
2018-08-06T03:50:00.987Z,90.10
2018-08-06T03:51:00.897Z,89.62
2018-08-06T03:52:00.828Z,88.62
2018-08-06T03:53:00.748Z,88.43
2018-08-06T03:54:00.683Z,89.20
2018-08-06T03:55:21.583Z,89.96
2018-08-06T03:56:00.528Z,91.59
2018-08-06T03:57:00.448Z,93.12
2018-08-06T03:58:00.384Z,95.32
2018-08-06T03:59:00.298Z,95.70
2018-08-06T04:00:00.230Z,96.08
2018-08-06T04:01:21.136Z,95.32
2018-08-06T04:02:00.094Z,94.74
2018-08-06T04:03:00.006Z,94.93
2018-08-06T04:03:59.935Z,94.84
2018-08-06T04:04:59.866Z,94.65
2018-08-06T04:05:59.774Z,94.07
2018-08-06T04:07:20.692Z,94.07
2018-08-06T04:07:59.628Z,94.46
2018-08-06T04:08:59.636Z,95.12
2018-08-06T04:09:59.480Z,95.89
2018-08-06T04:10:59.445Z,96.37
2018-08-06T04:11:59.329Z,96.75
2018-08-06T04:13:20.349Z,97.23
2018-08-06T04:13:59.178Z,97.71
2018-08-06T04:14:59.113Z,98.18
2018-08-06T04:15:59.029Z,97.90
2018-08-06T04:16:58.967Z,97.56
2018-08-06T04:17:58.879Z,97.75
2018-08-06T04:19:19.796Z,99.76
2018-08-06T04:19:58.734Z,99.00
2018-08-06T04:20:58.664Z,96.42
2018-08-06T04:21:58.588Z,92.40
2018-08-06T04:22:58.514Z,92.59
2018-08-06T04:23:58.428Z,93.07
2018-08-06T04:25:19.361Z,93.55
2018-08-06T04:25:58.285Z,92.78
2018-08-06T04:26:58.225Z,91.25
2018-08-06T04:27:58.134Z,90.01
2018-08-06T04:28:58.071Z,92.21
2018-08-06T04:29:57.982Z,94.89
2018-08-06T04:31:18.896Z,95.84
2018-08-06T04:31:57.831Z,96.99
2018-08-06T04:32:57.810Z,97.85
2018-08-06T04:33:57.680Z,98.00
2018-08-06T04:34:57.621Z,98.86
2018-08-06T04:35:57.546Z,99.91
2018-08-06T04:37:18.449Z,99.91
2018-08-06T04:37:57.382Z,99.99
2018-08-06T04:38:57.322Z,99.72
2018-08-06T04:39:57.236Z,99.99
2018-08-06T04:40:57.172Z,99.99
2018-08-06T04:41:57.086Z,99.99
2018-08-06T04:43:18.002Z,99.99
2018-08-06T04:43:56.940Z,99.99
2018-08-06T04:44:56.867Z,99.99
2018-08-06T04:45:56.796Z,99.99
2018-08-06T04:46:56.720Z,99.99
2018-08-06T04:47:56.637Z,99.99
2018-08-06T04:49:17.560Z,99.99
2018-08-06T04:49:56.494Z,99.99
2018-08-06T04:50:56.420Z,99.99
2018-08-06T04:51:56.337Z,99.99
2018-08-06T04:52:56.273Z,99.99
2018-08-06T04:53:56.198Z,99.99
2018-08-06T04:55:17.106Z,99.99
2018-08-06T04:55:56.049Z,99.99
2018-08-06T04:56:55.970Z,99.99
2018-08-06T04:57:55.894Z,99.99
2018-08-06T04:58:55.824Z,99.99
2018-08-06T04:59:55.743Z,99.99
2018-08-06T05:01:16.660Z,99.99
2018-08-06T05:01:55.598Z,99.99
2018-08-06T05:02:55.517Z,99.99
2018-08-06T05:03:55.461Z,99.99
2018-08-06T05:04:55.367Z,99.99
2018-08-06T05:05:55.309Z,99.99
2018-08-06T05:07:16.205Z,99.99
2018-08-06T05:07:55.155Z,99.99
2018-08-06T05:08:55.073Z,99.99
2018-08-06T05:09:55.009Z,99.99
2018-08-06T05:10:54.922Z,99.99
2018-08-06T05:11:54.854Z,99.99
2018-08-06T05:13:15.760Z,99.99
2018-08-06T05:13:54.709Z,99.99
2018-08-06T05:14:54.625Z,99.99
2018-08-06T05:15:54.558Z,99.99
2018-08-06T05:16:54.475Z,99.99
2018-08-06T05:17:54.415Z,99.99
2018-08-06T05:19:15.314Z,99.99
2018-08-06T05:19:54.268Z,99.99
2018-08-06T05:20:54.181Z,99.99
2018-08-06T05:21:54.124Z,99.99
2018-08-06T05:22:54.031Z,99.99
2018-08-06T05:23:53.978Z,99.99
2018-08-06T05:25:14.864Z,99.99
2018-08-06T05:25:53.820Z,99.99
2018-08-06T05:26:53.737Z,99.99
2018-08-06T05:27:53.676Z,99.99
2018-08-06T05:28:53.587Z,99.99
2018-08-06T05:29:53.519Z,99.99
2018-08-06T05:31:14.464Z,99.99
2018-08-06T05:31:53.378Z,99.99
2018-08-06T05:32:53.294Z,99.99
2018-08-06T05:33:53.227Z,99.99
2018-08-06T05:34:53.149Z,99.99
2018-08-06T05:35:53.076Z,99.99
2018-08-06T05:37:13.978Z,99.99
2018-08-06T05:37:52.927Z,99.99
2018-08-06T05:38:52.849Z,99.99
2018-08-06T05:39:52.783Z,99.99
2018-08-06T05:40:52.695Z,99.99
2018-08-06T05:41:52.639Z,99.99
2018-08-06T05:43:13.537Z,99.99
2018-08-06T05:43:52.488Z,99.99
2018-08-06T05:44:52.402Z,99.99
2018-08-06T05:45:52.339Z,99.99
2018-08-06T05:46:52.256Z,99.99
2018-08-06T05:47:52.197Z,99.99
2018-08-06T05:49:13.086Z,99.99
2018-08-06T05:49:52.038Z,99.99
2018-08-06T05:50:51.962Z,99.99
2018-08-06T05:51:51.895Z,99.99
2018-08-06T05:52:51.809Z,99.99
2018-08-06T05:53:51.745Z,99.99
2018-08-06T05:55:12.653Z,99.99
2018-08-06T05:55:51.595Z,99.99
2018-08-06T05:56:51.524Z,99.99
2018-08-06T05:57:51.460Z,99.99
2018-08-06T05:58:51.370Z,99.99
2018-08-06T05:59:51.299Z,99.99
2018-08-06T06:01:12.207Z,99.99
2018-08-06T06:01:51.161Z,99.20
2018-08-06T06:02:51.080Z,98.91
2018-08-06T06:03:51.010Z,98.24
2018-08-06T06:04:50.928Z,98.86
2018-08-06T06:05:50.864Z,98.29
2018-08-06T06:07:11.758Z,97.91
2018-08-06T06:07:50.715Z,97.14
2018-08-06T06:08:50.640Z,96.56
2018-08-06T06:09:50.578Z,96.47
2018-08-06T06:10:50.486Z,95.79
2018-08-06T06:11:50.422Z,94.93
2018-08-06T06:13:11.322Z,95.03
2018-08-06T06:13:50.278Z,95.03
2018-08-06T06:14:50.193Z,94.78
2018-08-06T06:15:50.124Z,94.01
2018-08-06T06:16:50.049Z,94.64
2018-08-06T06:17:49.978Z,95.45
2018-08-06T06:19:10.921Z,94.78
2018-08-06T06:19:49.832Z,96.03
2018-08-06T06:20:49.751Z,95.65
2018-08-06T06:21:49.691Z,95.03
2018-08-06T06:22:49.607Z,94.26
2018-08-06T06:23:49.539Z,92.91
2018-08-06T06:25:10.444Z,90.31
2018-08-06T06:25:49.428Z,90.60
2018-08-06T06:26:49.312Z,91.28
2018-08-06T06:27:49.247Z,90.22
2018-08-06T06:28:49.164Z,88.49
2018-08-06T06:29:49.101Z,87.34
2018-08-06T06:31:10.000Z,87.34
2018-08-06T06:31:48.950Z,86.61
2018-08-06T06:32:48.870Z,86.04
2018-08-06T06:33:48.808Z,85.80
2018-08-06T06:34:48.814Z,85.84
2018-08-06T06:35:48.653Z,85.94
2018-08-06T06:37:09.565Z,85.84
2018-08-06T06:37:48.627Z,86.42
2018-08-06T06:38:48.448Z,87.29
2018-08-06T06:39:48.370Z,85.55
2018-08-06T06:40:48.297Z,84.69
2018-08-06T06:41:48.316Z,85.78
2018-08-06T06:43:09.133Z,85.40
2018-08-06T06:43:48.071Z,83.86
2018-08-06T06:44:48.020Z,83.19
2018-08-06T06:45:47.927Z,83.09
2018-08-06T06:46:47.867Z,82.23
2018-08-06T06:47:47.780Z,82.90
2018-08-06T06:49:08.754Z,81.70
2018-08-06T06:49:47.634Z,80.54
2018-08-06T06:50:47.563Z,81.02
2018-08-06T06:51:47.494Z,80.44
2018-08-06T06:52:47.421Z,80.92
2018-08-06T06:53:47.340Z,79.28
2018-08-06T06:55:09.263Z,78.33
2018-08-06T06:55:47.198Z,75.73
2018-08-06T06:56:47.134Z,74.61
2018-08-06T06:57:47.054Z,74.90
2018-08-06T06:58:46.997Z,74.99
2018-08-06T06:59:46.912Z,74.32
2018-08-06T07:01:07.835Z,74.61
2018-08-06T07:01:46.766Z,75.19
2018-08-06T07:02:46.696Z,75.09
2018-08-06T07:03:46.621Z,74.74
2018-08-06T07:04:46.554Z,74.26
2018-08-06T07:05:46.480Z,74.26
2018-08-06T07:07:07.393Z,74.16
2018-08-06T07:07:46.324Z,74.07
2018-08-06T07:08:46.257Z,73.49
2018-08-06T07:09:46.191Z,73.20
2018-08-06T07:10:46.116Z,72.53
2018-08-06T07:11:46.055Z,73.53
2018-08-06T07:13:06.952Z,73.14
2018-08-06T07:13:46.072Z,73.33
2018-08-06T07:14:45.829Z,72.85
2018-08-06T07:15:45.757Z,72.56
2018-08-06T07:16:45.699Z,72.37
2018-08-06T07:17:45.618Z,71.92
2018-08-06T07:19:06.526Z,71.31
2018-08-06T07:19:45.477Z,71.44
2018-08-06T07:20:45.389Z,72.41
2018-08-06T07:21:45.355Z,71.73
2018-08-06T07:22:45.250Z,70.76
2018-08-06T07:23:45.199Z,70.61
2018-08-06T07:25:06.085Z,70.13
2018-08-06T07:25:45.040Z,70.80
2018-08-06T07:26:44.962Z,71.09
2018-08-06T07:27:44.895Z,72.06
2018-08-06T07:28:44.822Z,72.25
2018-08-06T07:29:44.767Z,72.06
2018-08-06T07:31:05.659Z,70.64
2018-08-06T07:31:44.615Z,70.36
2018-08-06T07:32:44.547Z,72.19
2018-08-06T07:33:44.531Z,71.70
2018-08-06T07:34:44.394Z,69.68
2018-08-06T07:35:44.329Z,69.20
2018-08-06T07:37:05.232Z,68.62
2018-08-06T07:37:44.188Z,68.52
2018-08-06T07:38:44.117Z,70.00
2018-08-06T07:39:44.048Z,68.94
2018-08-06T07:40:43.982Z,69.23
2018-08-06T07:41:43.906Z,68.84
2018-08-06T07:43:04.841Z,67.88
2018-08-06T07:43:43.770Z,67.72
2018-08-06T07:44:43.689Z,68.59
2018-08-06T07:45:43.624Z,68.01
2018-08-06T07:46:43.539Z,66.85
2018-08-06T07:47:43.476Z,66.46
2018-08-06T07:49:04.383Z,66.75
2018-08-06T07:49:43.357Z,66.59
2018-08-06T07:50:43.268Z,66.30
2018-08-06T07:51:43.200Z,65.82
2018-08-06T07:52:43.117Z,65.53
2018-08-06T07:53:43.055Z,65.66
2018-08-06T07:55:03.964Z,65.08
2018-08-06T07:55:42.949Z,65.08
2018-08-06T07:56:42.842Z,64.01
2018-08-06T07:57:42.848Z,64.79
2018-08-06T07:58:42.711Z,62.98
2018-08-06T07:59:42.703Z,63.56
2018-08-06T08:01:03.543Z,63.18
2018-08-06T08:01:42.499Z,63.08
2018-08-06T08:02:42.422Z,62.59
2018-08-06T08:03:42.359Z,62.72
2018-08-06T08:04:42.280Z,62.43
2018-08-06T08:05:42.228Z,61.56
2018-08-06T08:07:03.123Z,63.59
2018-08-06T08:07:42.076Z,63.14
2018-08-06T08:08:42.011Z,63.24
2018-08-06T08:09:42.004Z,61.69
2018-08-06T08:10:41.869Z,61.69
2018-08-06T08:11:41.804Z,60.94
2018-08-06T08:13:02.714Z,62.79
2018-08-06T08:13:41.722Z,61.04
2018-08-06T08:14:41.590Z,61.65
2018-08-06T08:15:41.629Z,60.10
2018-08-06T08:16:41.449Z,60.20
2018-08-06T08:17:41.439Z,60.81
2018-08-06T08:19:02.307Z,59.64
2018-08-06T08:19:41.372Z,59.36
2018-08-06T08:20:41.178Z,58.80
2018-08-06T08:21:41.156Z,58.41
2018-08-06T08:22:41.054Z,58.41
2018-08-06T08:23:41.073Z,59.28
2018-08-06T08:25:01.894Z,58.03
2018-08-06T08:25:40.848Z,57.42
2018-08-06T08:26:40.834Z,57.03
2018-08-06T08:27:40.787Z,57.90
2018-08-06T08:28:40.638Z,58.80
2018-08-06T08:29:40.596Z,58.41
2018-08-06T08:31:01.487Z,58.41
2018-08-06T08:31:40.617Z,60.35
2018-08-06T08:32:40.370Z,59.22
2018-08-06T08:33:40.409Z,57.86
2018-08-06T08:34:40.232Z,55.82
2018-08-06T08:35:40.325Z,55.43
2018-08-06T08:37:01.078Z,55.85
2018-08-06T08:37:40.226Z,54.75
2018-08-06T08:38:39.961Z,54.94
2018-08-06T08:39:40.070Z,55.14
2018-08-06T08:40:39.824Z,56.11
2018-08-06T08:41:39.949Z,55.63
2018-08-06T08:43:00.683Z,55.53
2018-08-06T08:43:39.754Z,55.43
2018-08-06T08:44:39.566Z,55.94
2018-08-06T08:45:39.740Z,54.68
2018-08-06T08:46:39.425Z,55.07
2018-08-06T08:47:39.479Z,55.88
2018-08-06T08:49:00.277Z,55.78
2018-08-06T08:49:39.395Z,54.83
2018-08-06T08:50:39.156Z,55.13
2018-08-06T08:51:39.312Z,52.89
2018-08-06T08:52:39.024Z,52.89
2018-08-06T08:53:39.112Z,54.64
2018-08-06T08:54:59.882Z,54.47
2018-08-06T08:55:39.026Z,54.57
2018-08-06T08:56:38.757Z,52.11
2018-08-06T08:57:38.691Z,51.75
2018-08-06T08:58:38.700Z,52.21
2018-08-06T08:59:38.747Z,52.11
2018-08-06T09:00:59.477Z,52.50
2018-08-06T09:01:38.553Z,52.31
2018-08-06T09:02:38.407Z,53.18
2018-08-06T09:03:38.467Z,54.38
2018-08-06T09:04:38.236Z,52.33
2018-08-06T09:05:38.374Z,50.68
2018-08-06T09:06:59.126Z,51.07
2018-08-06T09:07:38.185Z,50.09
2018-08-06T09:08:38.015Z,51.07
2018-08-06T09:09:38.097Z,50.90
2018-08-06T09:10:37.839Z,50.70
2018-08-06T09:11:37.908Z,51.21
2018-08-06T09:12:58.696Z,50.34
2018-08-06T09:13:37.817Z,49.95
2018-08-06T09:14:37.589Z,50.43
2018-08-06T09:15:37.627Z,50.24
2018-08-06T09:16:37.441Z,49.07
2018-08-06T09:17:37.535Z,49.37
2018-08-06T09:18:58.306Z,48.88
2018-08-06T09:19:37.456Z,49.07
2018-08-06T09:20:37.183Z,48.78
2018-08-06T09:21:37.259Z,48.68
2018-08-06T09:22:37.066Z,49.07
2018-08-06T09:23:37.066Z,48.68
2018-08-06T09:24:57.910Z,48.80
2018-08-06T09:25:36.981Z,49.97
2018-08-06T09:26:36.795Z,49.88
2018-08-06T09:27:36.896Z,51.36
2018-08-06T09:28:36.667Z,49.22
2018-08-06T09:29:36.699Z,48.54
2018-08-06T09:30:57.521Z,48.17
2018-08-06T09:31:36.610Z,47.97
2018-08-06T09:32:36.406Z,47.29
2018-08-06T09:33:36.532Z,47.68
2018-08-06T09:34:36.273Z,46.31
2018-08-06T09:35:36.336Z,46.31
2018-08-06T09:36:57.133Z,46.49
2018-08-06T09:37:37.167Z,47.36
2018-08-06T09:38:36.020Z,48.36
2018-08-06T09:39:36.053Z,49.54
2018-08-06T09:40:35.923Z,48.07
2018-08-06T09:41:35.860Z,46.61
2018-08-06T09:42:56.746Z,46.61
2018-08-06T09:43:35.771Z,46.53
2018-08-06T09:44:35.636Z,46.24
2018-08-06T09:45:35.683Z,46.83
2018-08-06T09:46:35.510Z,46.41
2018-08-06T09:47:35.492Z,46.24
2018-08-06T09:48:56.356Z,46.83
2018-08-06T09:49:35.405Z,46.73
2018-08-06T09:50:35.251Z,47.31
2018-08-06T09:51:35.219Z,45.97
2018-08-06T09:52:35.130Z,45.97
2018-08-06T09:53:35.124Z,46.04
2018-08-06T09:54:55.985Z,46.17
2018-08-06T09:55:35.034Z,46.07
2018-08-06T09:56:34.864Z,45.68
2018-08-06T09:57:34.844Z,45.48
2018-08-06T09:58:34.746Z,44.31
2018-08-06T09:59:34.754Z,44.58
2018-08-06T10:00:55.595Z,44.29
2018-08-06T10:01:34.667Z,44.78
2018-08-06T10:02:34.478Z,46.04
2018-08-06T10:03:34.474Z,46.53
2018-08-06T10:04:34.362Z,47.34
2018-08-06T10:05:34.410Z,46.48
2018-08-06T10:06:55.210Z,46.19
2018-08-06T10:07:34.197Z,44.63
2018-08-06T10:08:34.099Z,45.02
2018-08-06T10:09:34.104Z,44.92
2018-08-06T10:10:33.978Z,46.09
2018-08-06T10:11:34.012Z,45.80
2018-08-06T10:12:54.832Z,44.55
2018-08-06T10:13:33.824Z,44.74
2018-08-06T10:14:33.718Z,44.35
2018-08-06T10:15:33.736Z,43.77
2018-08-06T10:16:33.593Z,43.48
2018-08-06T10:17:33.644Z,43.36
2018-08-06T10:18:54.552Z,43.55
2018-08-06T10:19:33.485Z,43.33
2018-08-06T10:20:33.360Z,44.80
2018-08-06T10:21:33.368Z,43.73
2018-08-06T10:22:33.218Z,45.12
2018-08-06T10:23:33.172Z,44.43
2018-08-06T10:24:54.074Z,43.14
2018-08-06T10:25:33.089Z,44.60
2018-08-06T10:26:32.969Z,45.58
2018-08-06T10:27:32.994Z,46.26
2018-08-06T10:28:32.834Z,45.19
2018-08-06T10:29:32.805Z,45.51
2018-08-06T10:30:53.691Z,43.95
2018-08-06T10:31:32.644Z,44.24
2018-08-06T10:32:32.614Z,44.92
2018-08-06T10:33:32.518Z,45.51
2018-08-06T10:34:32.529Z,45.43
2018-08-06T10:35:32.391Z,45.33
2018-08-06T10:36:53.433Z,44.35
2018-08-06T10:37:32.267Z,42.30
2018-08-06T10:38:32.210Z,42.19
2018-08-06T10:39:32.158Z,42.87
2018-08-06T10:40:32.198Z,43.36
2018-08-06T10:41:32.062Z,42.29
2018-08-06T10:42:52.938Z,41.48
2018-08-06T10:43:32.525Z,42.65
2018-08-06T10:44:31.826Z,43.80
2018-08-06T10:45:31.768Z,44.38
2018-08-06T10:46:31.698Z,45.00
2018-08-06T10:47:31.644Z,43.90
2018-08-06T10:48:52.591Z,43.80
2018-08-06T10:49:31.514Z,44.29
2018-08-06T10:50:31.453Z,45.68
2018-08-06T10:51:31.395Z,44.51
2018-08-06T10:52:31.331Z,44.60
2018-08-06T10:53:31.256Z,44.41
2018-08-06T10:54:52.225Z,43.95
2018-08-06T10:55:31.131Z,44.24
2018-08-06T10:56:31.079Z,44.73
2018-08-06T10:57:31.202Z,43.55
2018-08-06T10:58:30.942Z,43.38
2018-08-06T10:59:31.006Z,44.45
2018-08-06T11:00:51.799Z,43.96
2018-08-06T11:01:30.889Z,43.49
2018-08-06T11:02:30.690Z,43.69
2018-08-06T11:03:30.676Z,43.20
2018-08-06T11:04:30.563Z,43.89
2018-08-06T11:05:30.587Z,43.79
2018-08-06T11:06:51.427Z,42.61
2018-08-06T11:07:30.399Z,42.32
2018-08-06T11:08:30.314Z,42.81
2018-08-06T11:09:30.339Z,43.40
2018-08-06T11:10:30.199Z,42.52
2018-08-06T11:11:30.224Z,42.13
2018-08-06T11:12:51.059Z,42.11
2018-08-06T11:13:30.032Z,42.11
2018-08-06T11:14:29.973Z,42.01
2018-08-06T11:15:29.943Z,42.68
2018-08-06T11:16:29.812Z,43.46
2018-08-06T11:17:29.846Z,42.75
2018-08-06T11:18:50.679Z,43.46
2018-08-06T11:19:29.661Z,43.65
2018-08-06T11:20:29.572Z,43.46
2018-08-06T11:21:29.577Z,43.36
2018-08-06T11:22:29.438Z,43.36
2018-08-06T11:23:29.483Z,43.36
2018-08-06T11:24:50.298Z,41.99
2018-08-06T11:25:29.293Z,42.01
2018-08-06T11:26:29.184Z,42.01
2018-08-06T11:27:29.205Z,44.28
2018-08-06T11:28:29.116Z,43.79
2018-08-06T11:29:29.122Z,43.23
2018-08-06T11:30:49.920Z,42.74
2018-08-06T11:31:28.926Z,41.29
2018-08-06T11:32:28.816Z,41.29
2018-08-06T11:33:28.837Z,40.80
2018-08-06T11:34:28.692Z,40.60
2018-08-06T11:35:28.651Z,41.00
2018-08-06T11:36:49.594Z,40.21
2018-08-06T11:37:28.565Z,39.41
2018-08-06T11:38:28.434Z,39.78
2018-08-06T11:39:28.465Z,40.76
2018-08-06T11:40:28.304Z,40.37
2018-08-06T11:41:28.272Z,40.43
2018-08-06T11:42:49.169Z,41.19
2018-08-06T11:43:28.185Z,42.26
2018-08-06T11:44:28.056Z,41.77
2018-08-06T11:45:28.106Z,41.28
2018-08-06T11:46:27.946Z,41.48
2018-08-06T11:47:27.909Z,41.38
2018-08-06T11:48:48.823Z,40.89
2018-08-06T11:49:27.818Z,43.65
2018-08-06T11:50:27.685Z,43.46
2018-08-06T11:51:27.727Z,43.67
2018-08-06T11:52:27.573Z,42.99
2018-08-06T11:53:27.540Z,42.21
2018-08-06T11:54:48.472Z,40.35
2018-08-06T11:55:27.449Z,41.62
2018-08-06T11:56:27.351Z,42.22
2018-08-06T11:57:27.360Z,40.95
2018-08-06T11:58:27.226Z,40.78
2018-08-06T11:59:27.201Z,40.21
2018-08-06T12:00:48.051Z,40.90
2018-08-06T12:01:27.076Z,39.72
2018-08-06T12:02:26.945Z,40.21
2018-08-06T12:03:26.991Z,39.84
2018-08-06T12:04:26.817Z,38.16
2018-08-06T12:05:26.811Z,40.14
2018-08-06T12:06:47.723Z,40.25
2018-08-06T12:07:26.720Z,40.16
2018-08-06T12:08:26.595Z,39.66
2018-08-06T12:09:26.520Z,37.90
2018-08-06T12:10:26.441Z,38.49
2018-08-06T12:11:26.459Z,37.31
2018-08-06T12:12:47.408Z,38.28
2018-08-06T12:13:26.340Z,38.28
2018-08-06T12:14:26.194Z,37.37
2018-08-06T12:15:26.149Z,37.49
2018-08-06T12:16:26.072Z,37.27
2018-08-06T12:17:26.058Z,37.37
2018-08-06T12:18:46.942Z,37.47
2018-08-06T12:19:25.977Z,37.27
2018-08-06T12:20:25.882Z,36.59
2018-08-06T12:21:25.780Z,35.79
2018-08-06T12:22:25.697Z,36.47
2018-08-06T12:23:25.691Z,36.28
2018-08-06T12:24:46.562Z,37.55
2018-08-06T12:25:25.601Z,36.57
2018-08-06T12:26:25.501Z,37.77
2018-08-06T12:27:25.429Z,38.45
2018-08-06T12:28:25.338Z,36.49
2018-08-06T12:29:25.346Z,37.79
2018-08-06T12:30:46.189Z,37.71
2018-08-06T12:31:25.276Z,37.61
2018-08-06T12:32:25.080Z,35.06
2018-08-06T12:33:25.041Z,35.86
2018-08-06T12:34:24.965Z,35.86
2018-08-06T12:35:24.963Z,36.16
2018-08-06T12:36:45.817Z,36.18
2018-08-06T12:37:24.869Z,34.90
2018-08-06T12:38:24.708Z,34.10
2018-08-06T12:39:24.676Z,34.20
2018-08-06T12:40:24.584Z,32.03
2018-08-06T12:41:24.583Z,33.69
2018-08-06T12:42:45.451Z,34.36
2018-08-06T12:43:24.402Z,33.84
2018-08-06T12:44:24.337Z,34.72
2018-08-06T12:45:24.281Z,35.01
2018-08-06T12:46:24.207Z,34.80
2018-08-06T12:47:24.157Z,35.77
2018-08-06T12:48:45.076Z,34.72
2018-08-06T12:49:24.033Z,35.89
2018-08-06T12:50:23.967Z,36.20
2018-08-06T12:51:23.914Z,35.13